Mehtap Bayraktar — TCPB — position and weather

sailwx.info

Track history (hours):
 
Tides and Currents Weather Stations Pressure Air Temp Water Temp Dewpoint Dewpoint Depression Visibility Wind Speed Wind Dir Waves Ship Positions

Mehtap Bayraktar

Last reported at 2014-Dec-21 01:31 UTC. Time now 2014-Dec-21 17:17 UTC.
Position N 39°35' E 003°46'.

; draft 7.5 m.

Type: Ship (hazmat cat A). MMSI: 271000578.

Date/timePositionNaut miles runAvg speedWind from/ knotsBaromVisibWave heightAir tempDewpointWater temp
2014-Dec-21 01:31N 39°35' E 003°46'1512.4
2014-Dec-21 00:17N 39°49' E 003°39'811.5
2014-Dec-20 23:33N 39°56' E 003°33'1611.2
2014-Dec-20 22:09N 40°08' E 003°20'812.8
2014-Dec-20 21:32N 40°15' E 003°14'1212.4
2014-Dec-20 20:33N 40°24' E 003°04'1212.3
2014-Dec-20 19:33N 40°34' E 002°54'1212.4
2014-Dec-20 18:33N 40°44' E 002°44'1312.5
2014-Dec-20 17:33N 40°54' E 002°34'1312.6
2014-Dec-20 16:32N 41°04' E 002°23'20 3.1
2014-Dec-20 10:11N 41°21' E 002°10'0 0.0
2014-Dec-20 06:29N 41°21' E 002°10'1 0.7
2014-Dec-20 04:33N 41°20' E 002°10'9 9.3
2014-Dec-20 03:33N 41°11' E 002°05'1312.4
2014-Dec-20 02:32N 41°01' E 001°55'1212.6
2014-Dec-20 01:33N 40°51' E 001°44'1212.4
2014-Dec-20 00:33N 40°42' E 001°34'1212.1
2014-Dec-19 23:33N 40°32' E 001°24'1212.3
2014-Dec-19 22:33N 40°25' E 001°11'2612.8
2014-Dec-19 20:31N 40°12' E 000°42'61 3.8
2014-Dec-19 04:29N 39°11' E 000°40'3712.7
2014-Dec-19 01:33N 38°38' E 001°01'1212.6
2014-Dec-19 00:33N 38°27' E 001°09'1413.1
2014-Dec-18 23:31N 38°17' E 001°22'1412.8
2014-Dec-18 22:25N 38°07' E 001°34'  
2014-Dec-13 09:28N 43°44' E 008°29'1112.5
2014-Dec-13 08:33N 43°54' E 008°37'1312.7
2014-Dec-13 07:33N 44°05' E 008°46'1312.8
2014-Dec-13 06:33N 44°16' E 008°55'8 8.2
2014-Dec-13 05:34N 44°24' E 008°53'0 0.2
2014-Dec-13 04:31N 44°24' E 008°53'0 0.0
2014-Dec-13 03:31N 44°24' E 008°53'0 0.0
2014-Dec-13 02:31N 44°24' E 008°53'0 0.0
2014-Dec-13 01:31N 44°24' E 008°53'0 0.0
2014-Dec-13 00:31N 44°24' E 008°53'0 0.0
2014-Dec-12 23:31N 44°24' E 008°53'0 0.0
2014-Dec-12 22:31N 44°24' E 008°53'0 0.0
2014-Dec-12 21:31N 44°24' E 008°53'0 0.0
2014-Dec-12 20:31N 44°24' E 008°53'0 0.0
2014-Dec-12 19:31N 44°24' E 008°53'0 0.0
2014-Dec-12 18:31N 44°24' E 008°53'0 0.0
2014-Dec-12 17:19N 44°24' E 008°53'0 0.0
2014-Dec-12 16:31N 44°24' E 008°53'0 0.0
2014-Dec-12 15:31N 44°24' E 008°53'0 0.0
2014-Dec-12 14:31N 44°24' E 008°53'0 0.0
2014-Dec-12 13:31N 44°24' E 008°53'0 0.0
2014-Dec-12 12:28N 44°24' E 008°53'0 0.0
2014-Dec-12 11:31N 44°24' E 008°53'0 0.0
2014-Dec-12 10:31N 44°24' E 008°53'0 0.0
2014-Dec-12 09:31N 44°24' E 008°53'0 0.0
2014-Dec-12 08:31N 44°24' E 008°53'0 0.0
2014-Dec-12 07:31N 44°24' E 008°53'0 0.0
2014-Dec-12 06:16N 44°24' E 008°53'0 0.0
2014-Dec-12 05:22N 44°24' E 008°53'0 0.0
2014-Dec-12 04:31N 44°24' E 008°53'0 0.0
2014-Dec-12 03:31N 44°24' E 008°53'0 0.0
2014-Dec-12 02:31N 44°24' E 008°53'0 0.0
2014-Dec-12 01:31N 44°24' E 008°53'0 0.0
2014-Dec-12 00:31N 44°24' E 008°53'0 0.0
2014-Dec-11 23:31N 44°24' E 008°53'0 0.0
2014-Dec-11 22:31N 44°24' E 008°53'0 0.0
2014-Dec-11 21:31N 44°24' E 008°53'0 0.0
2014-Dec-11 20:31N 44°24' E 008°53'0 0.0
2014-Dec-11 19:31N 44°24' E 008°53'0 0.3
2014-Dec-11 18:33N 44°24' E 008°53'7 7.4
2014-Dec-11 17:34N 44°17' E 008°55'1312.9
2014-Dec-11 16:34N 44°08' E 008°41'1412.5
2014-Dec-11 15:28N 43°59' E 008°27'4611.9
2014-Dec-11 11:33N 43°28' E 007°39'1311.4
2014-Dec-11 10:27N 43°21' E 007°25'1212.3
2014-Dec-11 09:31N 43°15' E 007°11'1212.1
2014-Dec-11 08:33N 43°09' E 006°58'1212.1
2014-Dec-11 07:33N 43°02' E 006°44'1211.8
2014-Dec-11 06:33N 42°56' E 006°30'1211.6
2014-Dec-11 05:33N 42°55' E 006°14'1212.0
2014-Dec-11 04:33N 42°56' E 005°58'1312.5
2014-Dec-11 03:33N 42°58' E 005°41'1412.1
2014-Dec-11 02:24N 42°55' E 005°22'1011.8
2014-Dec-11 01:33N 42°53' E 005°09'  
Track history (hours):
 
Tides and Currents Weather Stations Pressure Air Temp Water Temp Dewpoint Dewpoint Depression Visibility Wind Speed Wind Dir Waves Ship Positions

Mehtap Bayraktar

Last reported at 2014-Dec-21 01:31 UTC. Time now 2014-Dec-21 17:17 UTC.
Position N 39°35' E 003°46'.

; draft 7.5 m.

Type: Ship (hazmat cat A). MMSI: 271000578.

Date/timePositionNaut miles runAvg speedWind from/ knotsBaromVisibWave heightAir tempDewpointWater temp
2014-Dec-21 01:31N 39°35' E 003°46'1512.4
2014-Dec-21 00:17N 39°49' E 003°39'811.5
2014-Dec-20 23:33N 39°56' E 003°33'1611.2
2014-Dec-20 22:09N 40°08' E 003°20'812.8
2014-Dec-20 21:32N 40°15' E 003°14'1212.4
2014-Dec-20 20:33N 40°24' E 003°04'1212.3
2014-Dec-20 19:33N 40°34' E 002°54'1212.4
2014-Dec-20 18:33N 40°44' E 002°44'1312.5
2014-Dec-20 17:33N 40°54' E 002°34'1312.6
2014-Dec-20 16:32N 41°04' E 002°23'20 3.1
2014-Dec-20 10:11N 41°21' E 002°10'0 0.0
2014-Dec-20 06:29N 41°21' E 002°10'1 0.7
2014-Dec-20 04:33N 41°20' E 002°10'9 9.3
2014-Dec-20 03:33N 41°11' E 002°05'1312.4
2014-Dec-20 02:32N 41°01' E 001°55'1212.6
2014-Dec-20 01:33N 40°51' E 001°44'1212.4
2014-Dec-20 00:33N 40°42' E 001°34'1212.1
2014-Dec-19 23:33N 40°32' E 001°24'1212.3
2014-Dec-19 22:33N 40°25' E 001°11'2612.8
2014-Dec-19 20:31N 40°12' E 000°42'61 3.8
2014-Dec-19 04:29N 39°11' E 000°40'3712.7
2014-Dec-19 01:33N 38°38' E 001°01'1212.6
2014-Dec-19 00:33N 38°27' E 001°09'1413.1
2014-Dec-18 23:31N 38°17' E 001°22'1412.8
2014-Dec-18 22:25N 38°07' E 001°34'  
2014-Dec-13 09:28N 43°44' E 008°29'1112.5
2014-Dec-13 08:33N 43°54' E 008°37'1312.7
2014-Dec-13 07:33N 44°05' E 008°46'1312.8
2014-Dec-13 06:33N 44°16' E 008°55'8 8.2
2014-Dec-13 05:34N 44°24' E 008°53'0 0.2
2014-Dec-13 04:31N 44°24' E 008°53'0 0.0
2014-Dec-13 03:31N 44°24' E 008°53'0 0.0
2014-Dec-13 02:31N 44°24' E 008°53'0 0.0
2014-Dec-13 01:31N 44°24' E 008°53'0 0.0
2014-Dec-13 00:31N 44°24' E 008°53'0 0.0
2014-Dec-12 23:31N 44°24' E 008°53'0 0.0
2014-Dec-12 22:31N 44°24' E 008°53'0 0.0
2014-Dec-12 21:31N 44°24' E 008°53'0 0.0
2014-Dec-12 20:31N 44°24' E 008°53'0 0.0
2014-Dec-12 19:31N 44°24' E 008°53'0 0.0
2014-Dec-12 18:31N 44°24' E 008°53'0 0.0
2014-Dec-12 17:19N 44°24' E 008°53'0 0.0
2014-Dec-12 16:31N 44°24' E 008°53'0 0.0
2014-Dec-12 15:31N 44°24' E 008°53'0 0.0
2014-Dec-12 14:31N 44°24' E 008°53'0 0.0
2014-Dec-12 13:31N 44°24' E 008°53'0 0.0
2014-Dec-12 12:28N 44°24' E 008°53'0 0.0
2014-Dec-12 11:31N 44°24' E 008°53'0 0.0
2014-Dec-12 10:31N 44°24' E 008°53'0 0.0
2014-Dec-12 09:31N 44°24' E 008°53'0 0.0
2014-Dec-12 08:31N 44°24' E 008°53'0 0.0
2014-Dec-12 07:31N 44°24' E 008°53'0 0.0
2014-Dec-12 06:16N 44°24' E 008°53'0 0.0
2014-Dec-12 05:22N 44°24' E 008°53'0 0.0
2014-Dec-12 04:31N 44°24' E 008°53'0 0.0
2014-Dec-12 03:31N 44°24' E 008°53'0 0.0
2014-Dec-12 02:31N 44°24' E 008°53'0 0.0
2014-Dec-12 01:31N 44°24' E 008°53'0 0.0
2014-Dec-12 00:31N 44°24' E 008°53'0 0.0
2014-Dec-11 23:31N 44°24' E 008°53'0 0.0
2014-Dec-11 22:31N 44°24' E 008°53'0 0.0
2014-Dec-11 21:31N 44°24' E 008°53'0 0.0
2014-Dec-11 20:31N 44°24' E 008°53'0 0.0
2014-Dec-11 19:31N 44°24' E 008°53'0 0.3
2014-Dec-11 18:33N 44°24' E 008°53'7 7.4
2014-Dec-11 17:34N 44°17' E 008°55'1312.9
2014-Dec-11 16:34N 44°08' E 008°41'1412.5
2014-Dec-11 15:28N 43°59' E 008°27'4611.9
2014-Dec-11 11:33N 43°28' E 007°39'1311.4
2014-Dec-11 10:27N 43°21' E 007°25'1212.3
2014-Dec-11 09:31N 43°15' E 007°11'1212.1
2014-Dec-11 08:33N 43°09' E 006°58'1212.1
2014-Dec-11 07:33N 43°02' E 006°44'1211.8
2014-Dec-11 06:33N 42°56' E 006°30'1211.6
2014-Dec-11 05:33N 42°55' E 006°14'1212.0
2014-Dec-11 04:33N 42°56' E 005°58'1312.5
2014-Dec-11 03:33N 42°58' E 005°41'1412.1
2014-Dec-11 02:24N 42°55' E 005°22'1011.8
2014-Dec-11 01:33N 42°53' E 005°09'  

Dump ship's entire track history